sensor_id;sensor_type;location;lat;lon;timestamp;pressure;altitude;pressure_sealevel;temperature;humidity
58757;BME280;44527;47.460;19.016;2023-02-10T00:00:08;102452.78;;;-4.93;78.76
58757;BME280;44527;47.460;19.016;2023-02-10T00:03:12;102450.72;;;-5.05;78.35
58757;BME280;44527;47.460;19.016;2023-02-10T00:06:16;102452.25;;;-5.36;80.23
58757;BME280;44527;47.460;19.016;2023-02-10T00:09:18;102457.91;;;-5.46;79.99
58757;BME280;44527;47.460;19.016;2023-02-10T00:12:21;102464.75;;;-5.19;79.48
58757;BME280;44527;47.460;19.016;2023-02-10T00:15:23;102456.72;;;-5.04;77.55
58757;BME280;44527;47.460;19.016;2023-02-10T00:18:26;102467.22;;;-5.48;78.90
58757;BME280;44527;47.460;19.016;2023-02-10T00:21:29;102460.84;;;-5.85;80.05
58757;BME280;44527;47.460;19.016;2023-02-10T00:24:32;102459.81;;;-5.66;79.79
58757;BME280;44527;47.460;19.016;2023-02-10T00:27:34;102462.59;;;-5.84;80.58
58757;BME280;44527;47.460;19.016;2023-02-10T00:30:37;102455.44;;;-5.68;80.02
58757;BME280;44527;47.460;19.016;2023-02-10T00:33:41;102458.75;;;-5.71;80.09
58757;BME280;44527;47.460;19.016;2023-02-10T00:36:44;102461.03;;;-5.55;78.97
58757;BME280;44527;47.460;19.016;2023-02-10T00:39:46;102463.34;;;-5.37;78.29
58757;BME280;44527;47.460;19.016;2023-02-10T00:42:49;102462.06;;;-5.49;78.77
58757;BME280;44527;47.460;19.016;2023-02-10T00:45:52;102451.22;;;-5.15;77.90
58757;BME280;44527;47.460;19.016;2023-02-10T00:48:55;102454.31;;;-5.25;77.66
58757;BME280;44527;47.460;19.016;2023-02-10T00:51:58;102450.50;;;-5.38;78.22
58757;BME280;44527;47.460;19.016;2023-02-10T00:55:01;102462.50;;;-5.36;77.85
58757;BME280;44527;47.460;19.016;2023-02-10T00:58:04;102462.47;;;-5.37;78.44
58757;BME280;44527;47.460;19.016;2023-02-10T01:01:06;102454.53;;;-5.19;77.72
58757;BME280;44527;47.460;19.016;2023-02-10T01:04:09;102465.06;;;-5.10;76.96
58757;BME280;44527;47.460;19.016;2023-02-10T01:07:11;102456.34;;;-5.15;77.45
58757;BME280;44527;47.460;19.016;2023-02-10T01:10:14;102449.03;;;-5.04;78.08
58757;BME280;44527;47.460;19.016;2023-02-10T01:13:17;102440.16;;;-4.87;76.51
58757;BME280;44527;47.460;19.016;2023-02-10T01:16:20;102447.63;;;-5.22;77.04
58757;BME280;44527;47.460;19.016;2023-02-10T01:19:22;102449.38;;;-5.72;78.68
58757;BME280;44527;47.460;19.016;2023-02-10T01:22:25;102438.56;;;-5.63;78.48
58757;BME280;44527;47.460;19.016;2023-02-10T01:25:28;102437.03;;;-5.58;77.78
58757;BME280;44527;47.460;19.016;2023-02-10T01:28:31;102435.75;;;-5.71;78.26
58757;BME280;44527;47.460;19.016;2023-02-10T01:31:34;102434.94;;;-5.44;77.22
58757;BME280;44527;47.460;19.016;2023-02-10T01:34:39;102432.41;;;-5.43;77.30
58757;BME280;44527;47.460;19.016;2023-02-10T01:37:41;102426.47;;;-5.42;77.18
58757;BME280;44527;47.460;19.016;2023-02-10T01:40:47;102424.47;;;-5.25;76.96
58757;BME280;44527;47.460;19.016;2023-02-10T01:44:02;102428.75;;;-5.24;76.87
58757;BME280;44527;47.460;19.016;2023-02-10T01:47:06;102427.88;;;-4.99;76.82
58757;BME280;44527;47.460;19.016;2023-02-10T01:50:08;102435.88;;;-5.15;76.10
58757;BME280;44527;47.460;19.016;2023-02-10T01:53:12;102427.75;;;-5.29;76.02
58757;BME280;44527;47.460;19.016;2023-02-10T01:56:15;102423.69;;;-5.49;77.36
58757;BME280;44527;47.460;19.016;2023-02-10T01:59:20;102427.66;;;-5.32;77.65
58757;BME280;44527;47.460;19.016;2023-02-10T02:02:24;102421.44;;;-5.39;76.98
58757;BME280;44527;47.460;19.016;2023-02-10T02:05:33;102417.34;;;-5.85;78.32
58757;BME280;44527;47.460;19.016;2023-02-10T02:08:36;102425.09;;;-5.83;78.54
58757;BME280;44527;47.460;19.016;2023-02-10T02:15:37;102423.63;;;-6.02;78.78
58757;BME280;44527;47.460;19.016;2023-02-10T02:19:03;102425.72;;;-5.90;78.90
58757;BME280;44527;47.460;19.016;2023-02-10T02:32:16;102427.56;;;-5.35;77.90
58757;BME280;44527;47.460;19.016;2023-02-10T02:35:26;102430.34;;;-5.27;77.79
58757;BME280;44527;47.460;19.016;2023-02-10T02:38:30;102416.72;;;-5.26;77.64
58757;BME280;44527;47.460;19.016;2023-02-10T02:41:33;102418.62;;;-5.21;76.37
58757;BME280;44527;47.460;19.016;2023-02-10T02:44:38;102416.53;;;-5.33;76.03
58757;BME280;44527;47.460;19.016;2023-02-10T02:48:02;102416.34;;;-5.90;78.77
58757;BME280;44527;47.460;19.016;2023-02-10T02:54:42;102416.97;;;-6.45;82.64
58757;BME280;44527;47.460;19.016;2023-02-10T02:57:53;102417.22;;;-6.37;82.72
58757;BME280;44527;47.460;19.016;2023-02-10T03:01:05;102413.59;;;-5.96;80.50
58757;BME280;44527;47.460;19.016;2023-02-10T03:04:13;102423.19;;;-5.89;78.87
58757;BME280;44527;47.460;19.016;2023-02-10T03:07:17;102425.00;;;-6.12;79.10
58757;BME280;44527;47.460;19.016;2023-02-10T03:10:20;102420.09;;;-6.30;80.83
58757;BME280;44527;47.460;19.016;2023-02-10T03:13:23;102420.63;;;-6.14;80.18
58757;BME280;44527;47.460;19.016;2023-02-10T03:16:26;102416.84;;;-6.00;79.61
58757;BME280;44527;47.460;19.016;2023-02-10T03:19:29;102422.69;;;-6.28;80.21
58757;BME280;44527;47.460;19.016;2023-02-10T03:22:32;102418.16;;;-6.35;80.14
58757;BME280;44527;47.460;19.016;2023-02-10T03:25:34;102419.91;;;-6.34;79.14
58757;BME280;44527;47.460;19.016;2023-02-10T03:28:37;102413.44;;;-6.49;79.12
58757;BME280;44527;47.460;19.016;2023-02-10T03:31:40;102421.78;;;-6.75;80.31
58757;BME280;44527;47.460;19.016;2023-02-10T03:34:43;102417.31;;;-7.03;82.14
58757;BME280;44527;47.460;19.016;2023-02-10T03:37:46;102413.19;;;-7.00;82.40
58757;BME280;44527;47.460;19.016;2023-02-10T03:40:50;102420.59;;;-6.85;82.70
58757;BME280;44527;47.460;19.016;2023-02-10T03:43:53;102420.16;;;-6.96;82.92
58757;BME280;44527;47.460;19.016;2023-02-10T03:46:56;102419.16;;;-6.77;82.56
58757;BME280;44527;47.460;19.016;2023-02-10T03:49:58;102412.44;;;-6.75;82.84
58757;BME280;44527;47.460;19.016;2023-02-10T03:53:02;102418.31;;;-6.55;82.02
58757;BME280;44527;47.460;19.016;2023-02-10T03:56:06;102417.59;;;-6.51;81.17
58757;BME280;44527;47.460;19.016;2023-02-10T03:59:08;102403.34;;;-6.45;80.48
58757;BME280;44527;47.460;19.016;2023-02-10T04:02:12;102402.06;;;-6.57;80.06
58757;BME280;44527;47.460;19.016;2023-02-10T04:05:15;102400.03;;;-6.65;80.19
58757;BME280;44527;47.460;19.016;2023-02-10T04:08:17;102390.53;;;-6.69;80.75
58757;BME280;44527;47.460;19.016;2023-02-10T04:11:24;102390.19;;;-6.79;81.16
58757;BME280;44527;47.460;19.016;2023-02-10T04:14:27;102384.12;;;-6.81;81.63
58757;BME280;44527;47.460;19.016;2023-02-10T04:17:32;102386.09;;;-6.74;81.83
58757;BME280;44527;47.460;19.016;2023-02-10T04:20:36;102385.19;;;-6.76;81.54
58757;BME280;44527;47.460;19.016;2023-02-10T04:23:39;102380.97;;;-6.74;81.76
58757;BME280;44527;47.460;19.016;2023-02-10T04:26:41;102378.47;;;-6.50;81.38
58757;BME280;44527;47.460;19.016;2023-02-10T04:29:44;102380.16;;;-6.26;79.33
58757;BME280;44527;47.460;19.016;2023-02-10T04:32:46;102383.13;;;-6.39;80.05
58757;BME280;44527;47.460;19.016;2023-02-10T04:35:49;102390.06;;;-6.35;80.10
58757;BME280;44527;47.460;19.016;2023-02-10T04:38:52;102390.78;;;-6.39;79.60
58757;BME280;44527;47.460;19.016;2023-02-10T04:41:55;102394.19;;;-6.39;79.91
58757;BME280;44527;47.460;19.016;2023-02-10T04:44:58;102392.87;;;-6.52;80.08
58757;BME280;44527;47.460;19.016;2023-02-10T04:48:01;102399.34;;;-6.37;79.06
58757;BME280;44527;47.460;19.016;2023-02-10T04:51:07;102402.66;;;-6.40;78.93
58757;BME280;44527;47.460;19.016;2023-02-10T04:54:10;102403.16;;;-6.73;80.16
58757;BME280;44527;47.460;19.016;2023-02-10T04:57:12;102405.47;;;-7.01;80.91
58757;BME280;44527;47.460;19.016;2023-02-10T05:00:16;102421.00;;;-6.95;81.61
58757;BME280;44527;47.460;19.016;2023-02-10T05:03:18;102428.31;;;-6.61;80.11
58757;BME280;44527;47.460;19.016;2023-02-10T05:06:21;102433.37;;;-6.38;79.17
58757;BME280;44527;47.460;19.016;2023-02-10T05:09:24;102426.53;;;-6.15;78.61
58757;BME280;44527;47.460;19.016;2023-02-10T05:12:27;102435.69;;;-6.22;77.98
58757;BME280;44527;47.460;19.016;2023-02-10T05:15:30;102439.69;;;-6.29;78.01
58757;BME280;44527;47.460;19.016;2023-02-10T05:18:33;102437.88;;;-6.09;76.82
58757;BME280;44527;47.460;19.016;2023-02-10T05:21:36;102436.06;;;-6.80;79.63
58757;BME280;44527;47.460;19.016;2023-02-10T05:24:38;102438.47;;;-7.06;81.27
58757;BME280;44527;47.460;19.016;2023-02-10T05:27:41;102452.69;;;-6.69;80.79
58757;BME280;44527;47.460;19.016;2023-02-10T05:30:46;102444.88;;;-6.27;78.00
58757;BME280;44527;47.460;19.016;2023-02-10T05:33:49;102446.87;;;-6.42;78.17
58757;BME280;44527;47.460;19.016;2023-02-10T05:36:52;102448.41;;;-6.70;79.39
58757;BME280;44527;47.460;19.016;2023-02-10T05:39:57;102453.78;;;-6.85;79.62
58757;BME280;44527;47.460;19.016;2023-02-10T05:42:59;102448.28;;;-6.73;79.87
58757;BME280;44527;47.460;19.016;2023-02-10T05:46:02;102454.31;;;-6.92;80.42
58757;BME280;44527;47.460;19.016;2023-02-10T05:49:05;102453.78;;;-7.27;82.76
58757;BME280;44527;47.460;19.016;2023-02-10T05:52:10;102463.56;;;-7.17;82.84
58757;BME280;44527;47.460;19.016;2023-02-10T05:55:12;102469.97;;;-6.84;82.39
58757;BME280;44527;47.460;19.016;2023-02-10T05:58:14;102458.03;;;-6.63;81.63
58757;BME280;44527;47.460;19.016;2023-02-10T06:01:17;102450.69;;;-6.31;79.91
58757;BME280;44527;47.460;19.016;2023-02-10T06:04:20;102453.47;;;-6.25;76.92
58757;BME280;44527;47.460;19.016;2023-02-10T06:07:24;102448.41;;;-6.23;76.71
58757;BME280;44527;47.460;19.016;2023-02-10T06:10:27;102456.38;;;-6.83;78.48
58757;BME280;44527;47.460;19.016;2023-02-10T06:13:30;102455.22;;;-6.91;79.29
58757;BME280;44527;47.460;19.016;2023-02-10T06:16:33;102452.78;;;-6.88;80.01
58757;BME280;44527;47.460;19.016;2023-02-10T06:19:36;102449.56;;;-7.05;81.95
58757;BME280;44527;47.460;19.016;2023-02-10T06:22:42;102454.00;;;-6.79;81.69
58757;BME280;44527;47.460;19.016;2023-02-10T06:25:45;102451.19;;;-6.64;80.05
58757;BME280;44527;47.460;19.016;2023-02-10T06:28:48;102451.00;;;-6.68;80.12
58757;BME280;44527;47.460;19.016;2023-02-10T06:31:51;102454.13;;;-6.53;80.01
58757;BME280;44527;47.460;19.016;2023-02-10T06:34:54;102461.19;;;-6.23;78.50
58757;BME280;44527;47.460;19.016;2023-02-10T06:37:56;102466.31;;;-6.46;79.44
58757;BME280;44527;47.460;19.016;2023-02-10T06:40:59;102472.88;;;-6.06;77.84
58757;BME280;44527;47.460;19.016;2023-02-10T06:44:02;102473.25;;;-5.71;76.92
58757;BME280;44527;47.460;19.016;2023-02-10T06:47:05;102488.50;;;-5.49;75.37
58757;BME280;44527;47.460;19.016;2023-02-10T06:50:09;102504.53;;;-5.79;76.39
58757;BME280;44527;47.460;19.016;2023-02-10T06:53:15;102505.34;;;-5.56;75.86
58757;BME280;44527;47.460;19.016;2023-02-10T06:56:18;102520.81;;;-5.27;75.76
58757;BME280;44527;47.460;19.016;2023-02-10T06:59:23;102514.50;;;-4.58;73.73
58757;BME280;44527;47.460;19.016;2023-02-10T07:02:25;102504.72;;;-4.14;70.87
58757;BME280;44527;47.460;19.016;2023-02-10T07:05:28;102512.16;;;-3.62;68.26
58757;BME280;44527;47.460;19.016;2023-02-10T07:08:31;102499.03;;;-3.41;67.21
58757;BME280;44527;47.460;19.016;2023-02-10T07:11:34;102504.28;;;-3.36;68.06
58757;BME280;44527;47.460;19.016;2023-02-10T07:14:38;102506.75;;;-3.06;67.00
58757;BME280;44527;47.460;19.016;2023-02-10T07:17:41;102503.06;;;-3.17;67.48
58757;BME280;44527;47.460;19.016;2023-02-10T07:20:46;102512.09;;;-2.98;66.93
58757;BME280;44527;47.460;19.016;2023-02-10T07:23:50;102515.50;;;-2.99;66.86
58757;BME280;44527;47.460;19.016;2023-02-10T07:26:53;102509.03;;;-2.84;66.64
58757;BME280;44527;47.460;19.016;2023-02-10T07:29:55;102514.94;;;-2.86;67.37
58757;BME280;44527;47.460;19.016;2023-02-10T07:32:58;102519.47;;;-2.76;67.64
58757;BME280;44527;47.460;19.016;2023-02-10T07:36:02;102513.69;;;-2.67;68.04
58757;BME280;44527;47.460;19.016;2023-02-10T07:39:07;102515.25;;;-2.72;68.64
58757;BME280;44527;47.460;19.016;2023-02-10T07:42:10;102509.97;;;-2.80;68.93
58757;BME280;44527;47.460;19.016;2023-02-10T07:45:13;102507.63;;;-2.69;69.47
58757;BME280;44527;47.460;19.016;2023-02-10T07:48:18;102497.47;;;-2.25;68.33
58757;BME280;44527;47.460;19.016;2023-02-10T07:51:21;102493.97;;;-2.29;68.23
58757;BME280;44527;47.460;19.016;2023-02-10T07:54:24;102490.00;;;-2.13;69.20
58757;BME280;44527;47.460;19.016;2023-02-10T07:57:26;102502.56;;;-2.28;70.18
58757;BME280;44527;47.460;19.016;2023-02-10T08:00:29;102502.88;;;-2.13;69.32
58757;BME280;44527;47.460;19.016;2023-02-10T08:03:32;102509.19;;;-1.99;68.98
58757;BME280;44527;47.460;19.016;2023-02-10T08:06:38;102507.78;;;-1.81;68.91
58757;BME280;44527;47.460;19.016;2023-02-10T08:09:42;102504.66;;;-1.67;69.01
58757;BME280;44527;47.460;19.016;2023-02-10T08:12:44;102510.84;;;-1.57;68.13
58757;BME280;44527;47.460;19.016;2023-02-10T08:15:48;102517.97;;;-1.44;68.44
58757;BME280;44527;47.460;19.016;2023-02-10T08:18:51;102522.72;;;-1.18;67.42
58757;BME280;44527;47.460;19.016;2023-02-10T08:21:54;102525.13;;;-0.76;66.04
58757;BME280;44527;47.460;19.016;2023-02-10T08:24:56;102519.31;;;-0.62;65.49
58757;BME280;44527;47.460;19.016;2023-02-10T08:27:59;102525.91;;;-0.80;66.52
58757;BME280;44527;47.460;19.016;2023-02-10T08:31:03;102523.66;;;-0.60;66.28
58757;BME280;44527;47.460;19.016;2023-02-10T08:34:14;102531.56;;;-0.48;67.48
58757;BME280;44527;47.460;19.016;2023-02-10T08:37:17;102531.19;;;-0.14;66.46
58757;BME280;44527;47.460;19.016;2023-02-10T08:40:20;102523.94;;;0.26;65.50
58757;BME280;44527;47.460;19.016;2023-02-10T08:43:23;102523.59;;;-0.01;66.54
58757;BME280;44527;47.460;19.016;2023-02-10T08:46:26;102525.75;;;0.36;66.37
58757;BME280;44527;47.460;19.016;2023-02-10T08:49:29;102530.41;;;0.67;64.43
58757;BME280;44527;47.460;19.016;2023-02-10T08:52:31;102525.75;;;0.36;65.38
58757;BME280;44527;47.460;19.016;2023-02-10T08:55:34;102526.03;;;0.62;64.60
58757;BME280;44527;47.460;19.016;2023-02-10T08:58:37;102529.38;;;0.55;65.21
58757;BME280;44527;47.460;19.016;2023-02-10T09:01:40;102522.72;;;0.74;64.36
58757;BME280;44527;47.460;19.016;2023-02-10T09:04:45;102535.06;;;1.08;62.49
58757;BME280;44527;47.460;19.016;2023-02-10T09:07:52;102522.31;;;1.31;62.54
58757;BME280;44527;47.460;19.016;2023-02-10T09:10:55;102513.78;;;1.46;62.06
58757;BME280;44527;47.460;19.016;2023-02-10T09:14:00;102518.09;;;1.44;61.77
58757;BME280;44527;47.460;19.016;2023-02-10T09:17:02;102510.34;;;1.46;61.66
58757;BME280;44527;47.460;19.016;2023-02-10T09:20:05;102516.19;;;1.22;61.17
58757;BME280;44527;47.460;19.016;2023-02-10T09:23:08;102500.56;;;1.05;61.76
58757;BME280;44527;47.460;19.016;2023-02-10T09:26:10;102506.56;;;1.04;61.70
58757;BME280;44527;47.460;19.016;2023-02-10T09:29:13;102507.81;;;1.55;60.20
58757;BME280;44527;47.460;19.016;2023-02-10T09:32:18;102512.19;;;1.64;58.54
58757;BME280;44527;47.460;19.016;2023-02-10T09:35:21;102514.87;;;1.82;58.71
58757;BME280;44527;47.460;19.016;2023-02-10T09:38:24;102510.66;;;2.02;57.47
58757;BME280;44527;47.460;19.016;2023-02-10T09:44:47;102515.03;;;2.26;55.24
58757;BME280;44527;47.460;19.016;2023-02-10T09:48:00;102509.88;;;2.33;54.97
58757;BME280;44527;47.460;19.016;2023-02-10T09:54:10;102511.63;;;2.34;53.75
58757;BME280;44527;47.460;19.016;2023-02-10T10:00:43;102521.94;;;2.21;53.90
58757;BME280;44527;47.460;19.016;2023-02-10T10:04:07;102518.53;;;2.44;53.82
58757;BME280;44527;47.460;19.016;2023-02-10T10:07:23;102507.34;;;2.60;53.12
58757;BME280;44527;47.460;19.016;2023-02-10T10:10:32;102509.97;;;2.89;52.80
58757;BME280;44527;47.460;19.016;2023-02-10T10:13:38;102503.94;;;2.98;52.36
58757;BME280;44527;47.460;19.016;2023-02-10T10:16:50;102497.00;;;2.83;51.79
58757;BME280;44527;47.460;19.016;2023-02-10T10:23:33;102491.81;;;2.77;51.94
58757;BME280;44527;47.460;19.016;2023-02-10T10:30:12;102497.00;;;2.71;52.03
58757;BME280;44527;47.460;19.016;2023-02-10T10:33:47;102500.47;;;2.73;51.90
58757;BME280;44527;47.460;19.016;2023-02-10T10:36:55;102499.59;;;2.69;52.31
58757;BME280;44527;47.460;19.016;2023-02-10T10:40:03;102501.31;;;2.90;52.04
58757;BME280;44527;47.460;19.016;2023-02-10T10:43:13;102504.78;;;3.20;51.97
58757;BME280;44527;47.460;19.016;2023-02-10T10:46:43;102485.75;;;3.15;50.94
58757;BME280;44527;47.460;19.016;2023-02-10T10:49:48;102477.09;;;3.11;49.74
58757;BME280;44527;47.460;19.016;2023-02-10T10:52:53;102478.81;;;3.20;49.38
58757;BME280;44527;47.460;19.016;2023-02-10T10:55:57;102480.56;;;2.98;50.22
58757;BME280;44527;47.460;19.016;2023-02-10T10:59:10;102470.16;;;3.26;50.45
58757;BME280;44527;47.460;19.016;2023-02-10T11:02:21;102465.84;;;3.20;50.17
58757;BME280;44527;47.460;19.016;2023-02-10T11:05:37;102462.34;;;3.39;49.89
58757;BME280;44527;47.460;19.016;2023-02-10T11:08:44;102449.38;;;3.38;49.58
58757;BME280;44527;47.460;19.016;2023-02-10T11:11:47;102443.25;;;3.59;48.91
58757;BME280;44527;47.460;19.016;2023-02-10T11:14:50;102438.09;;;3.53;48.89
58757;BME280;44527;47.460;19.016;2023-02-10T11:17:58;102432.97;;;3.22;48.83
58757;BME280;44527;47.460;19.016;2023-02-10T11:21:09;102428.62;;;3.33;49.32
58757;BME280;44527;47.460;19.016;2023-02-10T11:24:32;102430.37;;;3.23;49.79
58757;BME280;44527;47.460;19.016;2023-02-10T11:27:35;102434.66;;;3.44;49.15
58757;BME280;44527;47.460;19.016;2023-02-10T11:30:45;102445.00;;;3.54;48.81
58757;BME280;44527;47.460;19.016;2023-02-10T11:37:22;102439.84;;;3.41;49.58
58757;BME280;44527;47.460;19.016;2023-02-10T11:40:31;102436.31;;;3.61;49.39
58757;BME280;44527;47.460;19.016;2023-02-10T11:43:49;102438.94;;;3.53;49.78
58757;BME280;44527;47.460;19.016;2023-02-10T11:46:59;102425.91;;;3.65;49.12
58757;BME280;44527;47.460;19.016;2023-02-10T11:50:16;102429.31;;;3.81;48.44
58757;BME280;44527;47.460;19.016;2023-02-10T11:53:28;102428.44;;;3.82;48.25
58757;BME280;44527;47.460;19.016;2023-02-10T12:04:14;102403.22;;;4.03;46.84
58757;BME280;44527;47.460;19.016;2023-02-10T12:11:27;102384.28;;;3.81;46.98
58757;BME280;44527;47.460;19.016;2023-02-10T12:17:31;102363.47;;;3.85;47.84
58757;BME280;44527;47.460;19.016;2023-02-10T12:20:44;102366.94;;;3.89;47.97
58757;BME280;44527;47.460;19.016;2023-02-10T12:34:18;102366.16;;;3.72;49.65
58757;BME280;44527;47.460;19.016;2023-02-10T12:47:41;102336.59;;;3.96;48.75
58757;BME280;44527;47.460;19.016;2023-02-10T12:54:30;102333.75;;;4.25;46.22
58757;BME280;44527;47.460;19.016;2023-02-10T12:58:03;102330.34;;;4.20;46.69
58757;BME280;44527;47.460;19.016;2023-02-10T13:01:19;102330.44;;;4.06;47.21
58757;BME280;44527;47.460;19.016;2023-02-10T13:04:31;102338.19;;;4.13;46.96
58757;BME280;44527;47.460;19.016;2023-02-10T13:07:49;102331.28;;;4.11;47.04
58757;BME280;44527;47.460;19.016;2023-02-10T13:10:58;102348.66;;;4.03;47.96
58757;BME280;44527;47.460;19.016;2023-02-10T13:14:08;102356.44;;;4.03;48.20
58757;BME280;44527;47.460;19.016;2023-02-10T13:17:11;102352.03;;;4.15;47.72
58757;BME280;44527;47.460;19.016;2023-02-10T13:20:40;102362.34;;;4.26;47.09
58757;BME280;44527;47.460;19.016;2023-02-10T13:23:53;102346.03;;;4.06;47.04
58757;BME280;44527;47.460;19.016;2023-02-10T13:40:23;102332.88;;;4.27;47.07
58757;BME280;44527;47.460;19.016;2023-02-10T13:43:30;102328.59;;;4.19;47.33
58757;BME280;44527;47.460;19.016;2023-02-10T13:46:34;102337.28;;;4.16;47.81
58757;BME280;44527;47.460;19.016;2023-02-10T13:56:38;102332.84;;;4.30;47.21
58757;BME280;44527;47.460;19.016;2023-02-10T13:59:40;102331.06;;;4.37;47.22
58757;BME280;44527;47.460;19.016;2023-02-10T14:02:44;102329.38;;;4.28;47.60
58757;BME280;44527;47.460;19.016;2023-02-10T14:05:54;102324.91;;;4.47;46.92
58757;BME280;44527;47.460;19.016;2023-02-10T14:09:03;102329.03;;;4.70;46.70
58757;BME280;44527;47.460;19.016;2023-02-10T14:12:26;102327.25;;;4.75;46.38
58757;BME280;44527;47.460;19.016;2023-02-10T14:15:35;102331.56;;;4.74;46.42
58757;BME280;44527;47.460;19.016;2023-02-10T14:18:39;102338.53;;;4.75;47.00
58757;BME280;44527;47.460;19.016;2023-02-10T14:21:43;102334.19;;;4.74;47.05
58757;BME280;44527;47.460;19.016;2023-02-10T14:24:48;102324.47;;;4.92;46.96
58757;BME280;44527;47.460;19.016;2023-02-10T14:27:53;102333.16;;;4.91;46.21
58757;BME280;44527;47.460;19.016;2023-02-10T14:31:00;102330.50;;;4.95;46.32
58757;BME280;44527;47.460;19.016;2023-02-10T14:34:05;102339.34;;;4.77;46.24
58757;BME280;44527;47.460;19.016;2023-02-10T14:37:20;102338.56;;;4.72;46.33
58757;BME280;44527;47.460;19.016;2023-02-10T14:40:24;102337.66;;;4.75;46.84
58757;BME280;44527;47.460;19.016;2023-02-10T14:43:32;102334.28;;;4.62;47.11
58757;BME280;44527;47.460;19.016;2023-02-10T14:46:36;102335.19;;;4.63;47.83
58757;BME280;44527;47.460;19.016;2023-02-10T14:49:38;102323.38;;;4.22;48.36
58757;BME280;44527;47.460;19.016;2023-02-10T14:52:50;102328.59;;;4.19;48.93
58757;BME280;44527;47.460;19.016;2023-02-10T14:55:56;102321.66;;;4.19;48.84
58757;BME280;44527;47.460;19.016;2023-02-10T14:58:59;102328.66;;;4.14;49.00
58757;BME280;44527;47.460;19.016;2023-02-10T15:02:15;102333.00;;;4.09;48.88
58757;BME280;44527;47.460;19.016;2023-02-10T15:05:19;102333.03;;;4.07;49.21
58757;BME280;44527;47.460;19.016;2023-02-10T15:08:48;102334.87;;;3.90;49.84
58757;BME280;44527;47.460;19.016;2023-02-10T15:11:50;102334.09;;;3.80;50.02
58757;BME280;44527;47.460;19.016;2023-02-10T15:15:37;102336.69;;;3.79;49.79
58757;BME280;44527;47.460;19.016;2023-02-10T15:18:45;102337.63;;;3.64;50.90
58757;BME280;44527;47.460;19.016;2023-02-10T15:21:49;102347.25;;;3.50;50.90
58757;BME280;44527;47.460;19.016;2023-02-10T15:24:54;102347.25;;;3.45;51.51
58757;BME280;44527;47.460;19.016;2023-02-10T15:27:58;102344.69;;;3.36;51.84
58757;BME280;44527;47.460;19.016;2023-02-10T15:34:27;102345.63;;;3.16;52.56
58757;BME280;44527;47.460;19.016;2023-02-10T15:37:30;102335.28;;;3.06;52.66
58757;BME280;44527;47.460;19.016;2023-02-10T15:40:34;102330.09;;;2.96;52.62
58757;BME280;44527;47.460;19.016;2023-02-10T15:43:37;102337.06;;;2.84;53.45
58757;BME280;44527;47.460;19.016;2023-02-10T15:46:41;102338.78;;;2.86;53.00
58757;BME280;44527;47.460;19.016;2023-02-10T15:49:45;102344.00;;;2.75;53.28
58757;BME280;44527;47.460;19.016;2023-02-10T15:52:48;102352.66;;;2.62;53.54
58757;BME280;44527;47.460;19.016;2023-02-10T15:55:52;102344.00;;;2.57;53.88
58757;BME280;44527;47.460;19.016;2023-02-10T15:58:54;102350.09;;;2.48;54.19
58757;BME280;44527;47.460;19.016;2023-02-10T16:01:58;102342.31;;;2.39;55.31
58757;BME280;44527;47.460;19.016;2023-02-10T16:05:01;102345.75;;;2.27;55.44
58757;BME280;44527;47.460;19.016;2023-02-10T16:08:20;102351.78;;;2.16;55.95
58757;BME280;44527;47.460;19.016;2023-02-10T16:11:23;102353.53;;;2.12;56.52
58757;BME280;44527;47.460;19.016;2023-02-10T16:14:28;102368.19;;;2.09;56.08
58757;BME280;44527;47.460;19.016;2023-02-10T16:17:37;102369.91;;;2.06;56.05
58757;BME280;44527;47.460;19.016;2023-02-10T16:20:40;102368.19;;;2.07;56.12
58757;BME280;44527;47.460;19.016;2023-02-10T16:23:43;102362.13;;;1.97;56.69
58757;BME280;44527;47.460;19.016;2023-02-10T16:26:47;102358.66;;;1.98;56.73
58757;BME280;44527;47.460;19.016;2023-02-10T16:29:50;102368.16;;;1.89;57.33
58757;BME280;44527;47.460;19.016;2023-02-10T16:32:53;102366.44;;;1.84;57.50
58757;BME280;44527;47.460;19.016;2023-02-10T16:35:56;102377.59;;;1.73;57.27
58757;BME280;44527;47.460;19.016;2023-02-10T16:38:58;102375.87;;;1.69;58.46
58757;BME280;44527;47.460;19.016;2023-02-10T16:42:04;102375.84;;;1.56;58.55
58757;BME280;44527;47.460;19.016;2023-02-10T16:45:07;102379.22;;;1.49;58.87
58757;BME280;44527;47.460;19.016;2023-02-10T16:48:09;102374.03;;;1.40;58.82
58757;BME280;44527;47.460;19.016;2023-02-10T16:51:14;102370.53;;;1.33;59.99
58757;BME280;44527;47.460;19.016;2023-02-10T16:54:17;102382.59;;;1.27;60.35
58757;BME280;44527;47.460;19.016;2023-02-10T16:57:19;102379.13;;;1.25;59.48
58757;BME280;44527;47.460;19.016;2023-02-10T17:00:24;102383.41;;;1.18;60.18
58757;BME280;44527;47.460;19.016;2023-02-10T17:03:26;102381.66;;;1.11;60.72
58757;BME280;44527;47.460;19.016;2023-02-10T17:06:29;102375.56;;;1.06;61.09
58757;BME280;44527;47.460;19.016;2023-02-10T17:09:35;102369.50;;;1.01;61.85
58757;BME280;44527;47.460;19.016;2023-02-10T17:12:38;102377.25;;;0.99;62.05
58757;BME280;44527;47.460;19.016;2023-02-10T17:15:40;102372.94;;;0.92;62.19
58757;BME280;44527;47.460;19.016;2023-02-10T17:18:43;102378.06;;;0.90;62.57
58757;BME280;44527;47.460;19.016;2023-02-10T17:21:45;102383.22;;;0.86;62.95
58757;BME280;44527;47.460;19.016;2023-02-10T17:24:48;102395.22;;;0.78;63.57
58757;BME280;44527;47.460;19.016;2023-02-10T17:27:51;102384.84;;;0.75;63.47
58757;BME280;44527;47.460;19.016;2023-02-10T17:30:54;102393.38;;;0.63;63.84
58757;BME280;44527;47.460;19.016;2023-02-10T17:33:57;102381.28;;;0.57;64.10
58757;BME280;44527;47.460;19.016;2023-02-10T17:37:03;102383.78;;;0.48;64.63
58757;BME280;44527;47.460;19.016;2023-02-10T17:40:08;102388.84;;;0.34;65.30
58757;BME280;44527;47.460;19.016;2023-02-10T17:43:27;102384.53;;;0.35;65.01